York — 9VED8 — position and weather

sailwx.info

Track history (hours):
 
Tides and Currents Weather Stations Pressure Air Temp Water Temp Dewpoint Dewpoint Depression Visibility Wind Speed Wind Dir Waves Ship Positions

York

Last reported at 2014-Jul-26 16:18 UTC. Time now 2014-Jul-28 22:32 UTC.
Position N 40°45' E 029°37'.

Length 100 m; draft 5.6 m.

Type: Tanker. MMSI: 565525000.

Date/timePositionNaut miles runAvg speedWind from/ knotsBaromVisibWave heightAir tempDewpointWater temp
2014-Jul-26 16:18N 40°45' E 029°37'3 0.1
2014-Jul-25 13:27N 40°45' E 029°33'910.2
2014-Jul-25 12:33N 40°44' E 029°21'1111.1
2014-Jul-25 11:33N 40°47' E 029°07'1211.4
2014-Jul-25 10:31N 40°56' E 028°56'342 7.8
2014-Jul-23 14:33N 44°15' E 035°14'1413.6
2014-Jul-23 13:33N 44°23' E 035°30'1413.3
2014-Jul-23 12:29N 44°30' E 035°47'1213.1
2014-Jul-23 11:33N 44°37' E 036°01'  
2014-Jul-20 21:29N 44°21' E 035°30'  
Track history (hours):
 
Tides and Currents Weather Stations Pressure Air Temp Water Temp Dewpoint Dewpoint Depression Visibility Wind Speed Wind Dir Waves Ship Positions

York

Last reported at 2014-Jul-26 16:18 UTC. Time now 2014-Jul-28 22:32 UTC.
Position N 40°45' E 029°37'.

Length 100 m; draft 5.6 m.

Type: Tanker. MMSI: 565525000.

Date/timePositionNaut miles runAvg speedWind from/ knotsBaromVisibWave heightAir tempDewpointWater temp
2014-Jul-26 16:18N 40°45' E 029°37'3 0.1
2014-Jul-25 13:27N 40°45' E 029°33'910.2
2014-Jul-25 12:33N 40°44' E 029°21'1111.1
2014-Jul-25 11:33N 40°47' E 029°07'1211.4
2014-Jul-25 10:31N 40°56' E 028°56'342 7.8
2014-Jul-23 14:33N 44°15' E 035°14'1413.6
2014-Jul-23 13:33N 44°23' E 035°30'1413.3
2014-Jul-23 12:29N 44°30' E 035°47'1213.1
2014-Jul-23 11:33N 44°37' E 036°01'  
2014-Jul-20 21:29N 44°21' E 035°30'  

Dump ship's entire track history